Time;durP1;ratioP1;P1;durP2;ratioP2;P2;SDS_P1;SDS_P2;PMS_P1;PMS_P2;Temp;Humidity;BMP_temperature;BMP_pressure;BME280_temperature;BME280_humidity;BME280_pressure;Samples;Min_cycle;Max_cycle;Signal;HPM_P1;HPM_P2
2022/02/25 00:01:09;;;;;;;13.10;9.77;;;;;;;3.12;100.00;99246.53;5042842;28;20225;-84
2022/02/25 00:03:36;;;;;;;13.83;9.40;;;;;;;3.25;100.00;99248.53;5026025;28;20233;-84
2022/02/25 00:06:03;;;;;;;10.90;8.30;;;;;;;3.14;100.00;99255.09;5041423;28;20264;-84
2022/02/25 00:08:30;;;;;;;10.90;8.57;;;;;;;3.08;100.00;99250.50;5026023;28;20232;-74
2022/02/25 00:10:57;;;;;;;10.10;7.60;;;;;;;3.03;100.00;99256.34;5041847;28;20333;-81
2022/02/25 00:13:24;;;;;;;10.23;7.23;;;;;;;3.30;100.00;99252.28;5043896;28;20229;-74
2022/02/25 00:15:50;;;;;;;9.13;7.20;;;;;;;3.10;100.00;99259.09;5041148;28;20233;-78
2022/02/25 00:18:17;;;;;;;11.07;7.97;;;;;;;2.96;100.00;99254.59;5044816;28;20234;-78
2022/02/25 00:20:44;;;;;;;10.07;7.90;;;;;;;2.79;100.00;99259.25;5042216;28;20230;-74
2022/02/25 00:23:11;;;;;;;11.70;8.83;;;;;;;2.82;100.00;99250.09;5041961;28;20261;-74
2022/02/25 00:25:41;;;;;;;11.63;8.60;;;;;;;2.77;100.00;99260.41;5043770;28;20511;-76
2022/02/25 00:28:08;;;;;;;9.27;7.93;;;;;;;2.73;100.00;99259.94;5041558;28;20234;-76
2022/02/25 00:30:37;;;;;;;10.80;8.50;;;;;;;2.79;100.00;99255.78;5042594;28;20226;-77
2022/02/25 00:33:03;;;;;;;11.10;8.67;;;;;;;2.74;100.00;99244.91;5040533;28;20540;-74
2022/02/25 00:35:30;;;;;;;10.83;8.47;;;;;;;2.76;100.00;99259.56;5042956;28;20221;-75
2022/02/25 00:37:57;;;;;;;10.77;8.37;;;;;;;2.81;100.00;99241.34;5040539;28;20234;-78
2022/02/25 00:40:23;;;;;;;13.07;9.10;;;;;;;2.74;100.00;99247.53;5025152;28;20242;-74
2022/02/25 00:42:50;;;;;;;11.23;8.03;;;;;;;2.72;100.00;99244.25;5041801;28;20720;-74
2022/02/25 00:45:17;;;;;;;10.70;7.90;;;;;;;2.69;100.00;99242.78;5040329;28;20284;-74
2022/02/25 00:47:44;;;;;;;11.93;8.13;;;;;;;2.62;100.00;99240.03;5038938;28;20640;-74
2022/02/25 00:50:11;;;;;;;10.77;7.70;;;;;;;2.54;100.00;99233.97;5039413;28;20348;-73
2022/02/25 00:52:38;;;;;;;9.57;7.27;;;;;;;2.55;100.00;99233.81;5026199;28;20234;-74
2022/02/25 00:55:06;;;;;;;10.07;7.50;;;;;;;2.38;100.00;99227.00;5041625;28;20234;-74
2022/02/25 00:57:32;;;;;;;11.43;8.13;;;;;;;2.49;100.00;99234.50;5049458;28;20720;-77
2022/02/25 01:00:01;;;;;;;11.27;7.70;;;;;;;2.37;100.00;99241.22;5041749;28;20234;-74
2022/02/25 01:02:28;;;;;;;10.63;7.50;;;;;;;2.30;100.00;99245.56;5024979;28;20315;-75
2022/02/25 01:04:58;;;;;;;9.70;7.77;;;;;;;2.37;100.00;99248.34;5041643;28;20321;-74
2022/02/25 01:07:25;;;;;;;10.43;7.50;;;;;;;2.27;100.00;99250.38;5041385;28;20236;-77
2022/02/25 01:09:52;;;;;;;12.67;8.10;;;;;;;2.22;100.00;99248.28;5046819;28;20655;-74
2022/02/25 01:12:19;;;;;;;11.93;8.33;;;;;;;2.25;100.00;99247.09;5027122;28;20257;-74
2022/02/25 01:14:46;;;;;;;10.70;8.40;;;;;;;2.19;100.00;99260.00;5024802;28;20644;-74
2022/02/25 01:17:13;;;;;;;12.63;9.60;;;;;;;2.13;100.00;99257.25;5025760;28;20225;-76
2022/02/25 01:19:39;;;;;;;14.87;10.63;;;;;;;2.06;100.00;99253.63;5024674;28;20226;-75
2022/02/25 01:22:06;;;;;;;13.57;10.30;;;;;;;1.96;100.00;99253.84;5040040;28;20222;-74
2022/02/25 01:24:33;;;;;;;15.40;10.37;;;;;;;1.93;100.00;99256.84;5048022;28;20265;-73
2022/02/25 01:27:00;;;;;;;12.07;9.17;;;;;;;1.85;100.00;99258.72;5038555;28;20233;-73
2022/02/25 01:29:26;;;;;;;12.83;9.40;;;;;;;1.88;100.00;99253.09;5028505;28;20297;-73
2022/02/25 01:31:53;;;;;;;12.00;9.17;;;;;;;1.86;100.00;99260.38;5041074;28;20233;-75
2022/02/25 01:34:20;;;;;;;12.90;8.63;;;;;;;1.84;100.00;99265.00;5043879;28;20253;-74
2022/02/25 01:36:47;;;;;;;11.00;8.13;;;;;;;1.76;100.00;99265.88;5030720;28;20252;-73
2022/02/25 01:39:14;;;;;;;11.10;8.40;;;;;;;1.74;100.00;99267.84;5048585;28;20225;-73
2022/02/25 01:41:42;;;;;;;10.07;7.90;;;;;;;1.62;100.00;99266.59;5044287;28;20221;-73
2022/02/25 01:44:14;;;;;;;10.43;8.03;;;;;;;1.61;100.00;99264.94;5046757;28;20228;-73
2022/02/25 01:46:46;;;;;;;12.70;8.07;;;;;;;1.54;100.00;99261.34;5039735;28;20238;-73
2022/02/25 01:49:16;;;;;;;11.63;8.43;;;;;;;1.54;100.00;99256.88;5045329;28;20230;-73
2022/02/25 01:51:47;;;;;;;10.33;7.93;;;;;;;1.49;100.00;99255.75;5044868;28;20261;-73
2022/02/25 01:54:21;;;;;;;10.80;7.63;;;;;;;1.47;100.00;99257.72;5042434;28;20242;-73
2022/02/25 01:57:10;;;;;;;8.37;7.40;;;;;;;1.33;100.00;99254.81;5078245;22;20240;-74
2022/02/25 01:59:45;;;;;;;10.57;7.43;;;;;;;1.32;100.00;99266.34;5044854;28;20237;-72
2022/02/25 02:02:13;;;;;;;12.67;7.53;;;;;;;1.32;100.00;99269.00;5081290;22;20295;-73
2022/02/25 02:04:44;;;;;;;10.03;6.97;;;;;;;1.28;100.00;99272.13;5066473;22;20221;-73
2022/02/25 02:07:12;;;;;;;9.33;6.70;;;;;;;1.28;100.00;99275.59;5085184;23;20241;-73
2022/02/25 02:09:41;;;;;;;10.13;6.57;;;;;;;1.26;100.00;99274.94;5086681;28;20200;-73
2022/02/25 02:12:47;;;;;;;7.47;6.50;;;;;;;1.23;100.00;99277.91;5080379;23;20219;-73
2022/02/25 02:15:19;;;;;;;8.87;7.03;;;;;;;1.33;100.00;99281.19;5067772;28;20209;-72
2022/02/25 02:17:56;;;;;;;10.13;6.90;;;;;;;1.26;100.00;99277.56;5090867;28;20200;-73
2022/02/25 02:20:29;;;;;;;9.93;6.93;;;;;;;1.27;100.00;99276.59;5090839;28;20212;-73
2022/02/25 02:23:13;;;;;;;10.67;7.57;;;;;;;1.25;100.00;99277.75;5096087;22;20233;-73
2022/02/25 02:25:44;;;;;;;9.13;7.20;;;;;;;1.20;100.00;99272.16;5074785;23;20237;-72
2022/02/25 02:28:27;;;;;;;12.00;7.43;;;;;;;1.23;100.00;99279.72;5074414;28;20204;-73
2022/02/25 02:31:28;;;;;;;8.40;6.53;;;;;;;1.34;100.00;99263.56;5105720;22;20253;-73
2022/02/25 02:34:35;;;;;;;8.07;7.03;;;;;;;1.40;100.00;99248.84;5078546;23;20220;-73
2022/02/25 02:37:13;;;;;;;7.37;5.80;;;;;;;1.57;100.00;99234.59;5081992;23;20224;-76
2022/02/25 02:40:05;;;;;;;8.63;5.90;;;;;;;1.50;100.00;99226.53;5081248;23;20258;-71
2022/02/25 02:42:42;;;;;;;10.07;6.20;;;;;;;1.48;100.00;99225.06;4790297;23;6344309;-73
2022/02/25 02:45:15;;;;;;;7.97;6.00;;;;;;;1.46;100.00;99242.88;5052888;28;20210;-73
2022/02/25 02:47:49;;;;;;;8.37;6.27;;;;;;;1.47;100.00;99228.69;5089581;22;20225;-72
2022/02/25 02:50:44;;;;;;;8.30;6.10;;;;;;;1.48;100.00;99231.16;5073817;28;20190;-73
2022/02/25 02:53:27;;;;;;;8.90;6.10;;;;;;;1.50;100.00;99228.34;5063619;28;20256;-72
2022/02/25 02:55:55;;;;;;;8.10;5.90;;;;;;;1.44;100.00;99227.22;5064375;28;20236;-73
2022/02/25 02:58:25;;;;;;;8.83;6.23;;;;;;;1.49;100.00;99235.47;5062451;28;20224;-72
2022/02/25 03:00:52;;;;;;;8.37;6.27;;;;;;;1.48;100.00;99239.09;5062629;28;20221;-72
2022/02/25 03:03:22;;;;;;;8.30;5.77;;;;;;;1.42;100.00;99246.84;5068876;22;20236;-72
2022/02/25 03:05:51;;;;;;;8.30;5.73;;;;;;;1.47;100.00;99253.28;5066401;28;20231;-73
2022/02/25 03:08:20;;;;;;;8.20;5.70;;;;;;;1.38;100.00;99261.38;5065745;28;20235;-73
2022/02/25 03:10:48;;;;;;;9.83;6.37;;;;;;;1.36;100.00;99266.00;5066280;28;20251;-73
2022/02/25 03:13:15;;;;;;;8.17;5.87;;;;;;;1.39;100.00;99274.44;5066633;28;20236;-73
2022/02/25 03:15:43;;;;;;;8.40;5.80;;;;;;;1.53;100.00;99270.25;5063664;28;20225;-73
2022/02/25 03:18:12;;;;;;;9.27;6.10;;;;;;;1.44;100.00;99266.81;5064730;28;20252;-73
2022/02/25 03:20:43;;;;;;;10.73;6.00;;;;;;;1.52;100.00;99256.22;5065243;28;20286;-72
2022/02/25 03:23:12;;;;;;;9.70;6.57;;;;;;;1.50;100.00;99252.91;5064979;28;20221;-73
2022/02/25 03:25:40;;;;;;;8.83;6.40;;;;;;;1.72;100.00;99254.84;5064600;28;20229;-73
2022/02/25 03:28:10;;;;;;;7.63;5.37;;;;;;;1.66;100.00;99266.06;5065406;28;20587;-73
2022/02/25 03:30:37;;;;;;;7.80;5.60;;;;;;;2.01;100.00;99259.44;5063953;28;20304;-73
2022/02/25 03:33:06;;;;;;;7.63;5.60;;;;;;;1.78;100.00;99269.97;5064792;28;20229;-73
2022/02/25 03:35:39;;;;;;;8.57;5.70;;;;;;;1.70;100.00;99277.94;5063443;28;20221;-73
2022/02/25 03:38:05;;;;;;;7.20;5.53;;;;;;;1.72;100.00;99275.13;5063042;28;20248;-73
2022/02/25 03:40:33;;;;;;;8.30;5.37;;;;;;;1.76;100.00;99274.63;5061213;28;20297;-73
2022/02/25 03:43:02;;;;;;;6.80;5.90;;;;;;;1.76;100.00;99277.25;5062116;28;20735;-73
2022/02/25 03:45:29;;;;;;;6.83;5.93;;;;;;;1.72;100.00;99283.88;5061782;28;20275;-73
2022/02/25 03:47:56;;;;;;;6.63;5.17;;;;;;;1.70;100.00;99288.50;5062306;28;20569;-73
2022/02/25 03:50:22;;;;;;;7.90;5.20;;;;;;;1.78;100.00;99290.28;5061921;28;20232;-73
2022/02/25 03:52:51;;;;;;;6.47;4.83;;;;;;;1.88;100.00;99296.19;5062854;28;20255;-73
2022/02/25 03:55:21;;;;;;;8.90;5.20;;;;;;;2.08;100.00;99301.88;5061183;28;20275;-73
2022/02/25 03:57:49;;;;;;;5.67;3.00;;;;;;;2.61;100.00;99303.69;5060611;28;20233;-73
2022/02/25 04:00:18;;;;;;;3.77;2.27;;;;;;;3.49;100.00;99301.25;5062087;28;20238;-73
2022/02/25 04:02:45;;;;;;;5.10;2.63;;;;;;;3.87;100.00;99302.75;5062151;28;20229;-73
2022/02/25 04:05:12;;;;;;;4.90;1.93;;;;;;;4.61;100.00;99308.72;5063887;28;20222;-73
2022/02/25 04:07:41;;;;;;;4.20;1.90;;;;;;;5.11;100.00;99325.50;5063864;28;20241;-73
2022/02/25 04:10:13;;;;;;;3.47;1.80;;;;;;;5.83;100.00;99328.66;5045876;28;20225;-73
2022/02/25 04:12:41;;;;;;;4.47;1.70;;;;;;;5.95;100.00;99332.44;5063932;28;20229;-73
2022/02/25 04:15:12;;;;;;;3.43;1.63;;;;;;;6.38;100.00;99334.88;5064336;28;20213;-73
2022/02/25 04:17:40;;;;;;;2.87;1.47;;;;;;;6.77;100.00;99334.13;5064614;28;20280;-73
2022/02/25 04:20:07;;;;;;;3.57;1.40;;;;;;;7.03;100.00;99343.00;5064015;28;20316;-73
2022/02/25 04:22:39;;;;;;;3.70;1.60;;;;;;;7.33;100.00;99346.06;5063882;28;20239;-73
2022/02/25 04:25:14;;;;;;;2.20;1.40;;;;;;;7.87;100.00;99361.00;5060222;28;20636;-73
2022/02/25 04:27:42;;;;;;;5.37;2.30;;;;;;;8.18;100.00;99371.78;5062322;28;20232;-74
2022/02/25 04:30:10;;;;;;;4.60;2.57;;;;;;;8.48;100.00;99382.78;5063253;28;20304;-73
2022/02/25 04:32:39;;;;;;;3.47;2.33;;;;;;;8.58;100.00;99391.19;5061339;28;20585;-73
2022/02/25 04:35:07;;;;;;;5.67;2.33;;;;;;;8.73;100.00;99413.06;5057657;28;20310;-73
2022/02/25 04:37:34;;;;;;;3.77;1.70;;;;;;;8.84;100.00;99436.44;5061420;28;20227;-73
2022/02/25 04:40:06;;;;;;;3.20;1.60;;;;;;;8.73;100.00;99455.81;5061564;28;20272;-73
2022/02/25 04:42:36;;;;;;;4.27;1.70;;;;;;;8.55;100.00;99468.19;5061998;28;20690;-73
2022/02/25 04:45:05;;;;;;;2.20;1.30;;;;;;;8.34;100.00;99498.66;5061986;28;20225;-73
2022/02/25 04:47:33;;;;;;;2.07;1.40;;;;;;;8.11;100.00;99499.06;5061114;28;20229;-73
2022/02/25 04:50:00;;;;;;;1.37;1.10;;;;;;;8.09;100.00;99524.31;5062941;28;20229;-73
2022/02/25 04:52:27;;;;;;;1.73;1.00;;;;;;;7.88;100.00;99526.16;5047028;28;20229;-73
2022/02/25 04:54:54;;;;;;;1.73;0.90;;;;;;;7.62;100.00;99546.63;5061447;28;20225;-73
2022/02/25 04:57:21;;;;;;;1.57;1.00;;;;;;;7.29;100.00;99557.22;5059513;28;20236;-73
2022/02/25 04:59:49;;;;;;;1.47;0.80;;;;;;;7.11;100.00;99556.94;5042624;28;20261;-73
2022/02/25 05:02:19;;;;;;;1.10;0.87;;;;;;;6.92;100.00;99563.81;5047727;28;20225;-73
2022/02/25 05:04:46;;;;;;;0.70;0.67;;;;;;;6.53;100.00;99578.53;5061788;28;20660;-73
2022/02/25 05:07:13;;;;;;;1.20;0.70;;;;;;;6.40;100.00;99566.97;5060210;28;20255;-73
2022/02/25 05:09:40;;;;;;;1.17;0.70;;;;;;;6.13;100.00;99565.97;5060709;28;20301;-73
2022/02/25 05:12:08;;;;;;;1.40;0.67;;;;;;;5.94;100.00;99583.41;5060670;28;20213;-73
2022/02/25 05:20:15;;;;;;;0.50;0.50;;;;;;;5.60;100.00;99589.38;5055456;28;20251;-73
2022/02/25 05:22:45;;;;;;;1.87;0.50;;;;;;;5.61;100.00;99596.34;5059774;28;20315;-73
2022/02/25 05:25:12;;;;;;;1.13;0.67;;;;;;;5.44;100.00;99600.25;5060560;28;20284;-73
2022/02/25 05:27:41;;;;;;;0.63;0.63;;;;;;;5.41;100.00;99597.16;5059787;28;20233;-73
2022/02/25 05:30:14;;;;;;;0.90;0.50;;;;;;;5.25;100.00;99604.31;5056639;28;20587;-73
2022/02/25 05:32:43;;;;;;;0.50;0.50;;;;;;;5.18;100.00;99613.22;5059181;28;20313;-73
2022/02/25 05:35:10;;;;;;;0.87;0.53;;;;;;;4.98;100.00;99615.63;5061742;28;20308;-73
2022/02/25 05:37:38;;;;;;;1.03;0.30;;;;;;;4.95;100.00;99613.31;5043371;28;20528;-73
2022/02/25 05:40:06;;;;;;;0.50;0.50;;;;;;;4.82;100.00;99618.44;5060228;28;20320;-73
2022/02/25 05:42:33;;;;;;;0.60;0.60;;;;;;;4.76;100.00;99619.16;5060304;28;20255;-73
2022/02/25 05:45:01;;;;;;;2.80;0.63;;;;;;;4.82;100.00;99621.09;5060152;28;20255;-73
2022/02/25 05:47:28;;;;;;;0.37;0.30;;;;;;;5.03;100.00;99628.34;5060631;28;20571;-73
2022/02/25 05:49:55;;;;;;;1.27;0.50;;;;;;;5.09;100.00;99628.41;5060843;28;20271;-73
2022/02/25 05:52:24;;;;;;;0.30;0.30;;;;;;;5.14;100.00;99633.16;5045590;28;20233;-73
2022/02/25 05:54:58;;;;;;;0.53;0.37;;;;;;;5.07;100.00;99630.44;5061178;28;20213;-73
2022/02/25 05:57:34;;;;;;;0.30;0.30;;;;;;;5.03;100.00;99641.63;5091245;22;20258;-74
2022/02/25 06:00:07;;;;;;;0.57;0.40;;;;;;;4.96;100.00;99643.34;5076381;28;20266;-75
2022/02/25 06:02:45;;;;;;;0.50;0.40;;;;;;;4.96;100.00;99660.09;5072647;28;20234;-73
2022/02/25 06:05:19;;;;;;;0.40;0.40;;;;;;;4.93;100.00;99660.47;5088247;28;20231;-74
2022/02/25 06:07:59;;;;;;;0.40;0.40;;;;;;;4.95;100.00;99662.94;5073662;28;20232;-72
2022/02/25 06:10:32;;;;;;;0.70;0.40;;;;;;;5.06;100.00;99668.63;5091216;28;20232;-73
2022/02/25 06:13:03;;;;;;;0.40;0.33;;;;;;;4.98;100.00;99682.00;5078873;28;20228;-75
2022/02/25 06:15:35;;;;;;;1.03;0.53;;;;;;;5.02;100.00;99701.03;5088351;28;20212;-73
2022/02/25 06:18:02;;;;;;;0.73;0.30;;;;;;;5.17;100.00;99696.56;5094328;28;20224;-73
2022/02/25 06:20:33;;;;;;;1.70;0.50;;;;;;;5.21;100.00;99703.16;5087889;28;20232;-73
2022/02/25 06:23:08;;;;;;;1.43;0.53;;;;;;;5.26;100.00;99704.25;5114334;22;20532;-74
2022/02/25 06:25:40;;;;;;;0.77;0.57;;;;;;;5.27;100.00;99718.38;5068584;28;20276;-72
2022/02/25 06:28:15;;;;;;;1.37;0.47;;;;;;;5.18;100.00;99720.25;5072157;28;20236;-73
2022/02/25 06:30:44;;;;;;;0.50;0.33;;;;;;;5.31;100.00;99722.31;5066237;28;20297;-74
2022/02/25 06:33:13;;;;;;;1.23;0.30;;;;;;;5.30;100.00;99718.81;5072445;28;20233;-74
2022/02/25 06:35:42;;;;;;;0.87;0.50;;;;;;;5.21;100.00;99722.56;5069718;28;20647;-73
2022/02/25 06:38:09;;;;;;;0.40;0.20;;;;;;;5.48;100.00;99728.25;5084434;22;20329;-73
2022/02/25 06:40:39;;;;;;;0.50;0.40;;;;;;;5.50;100.00;99720.91;5078888;23;20258;-73
2022/02/25 06:43:09;;;;;;;1.07;0.40;;;;;;;5.57;100.00;99727.97;5054808;28;20270;-72
2022/02/25 06:45:41;;;;;;;0.40;0.40;;;;;;;5.32;100.00;99729.25;5096642;28;20531;-74
2022/02/25 06:48:19;;;;;;;0.70;0.30;;;;;;;5.31;100.00;99735.59;5078545;28;20229;-72
2022/02/25 06:50:46;;;;;;;0.40;0.40;;;;;;;5.38;100.00;99739.16;5095647;28;20554;-72
2022/02/25 06:53:21;;;;;;;1.00;0.30;;;;;;;5.42;100.00;99744.91;5080493;22;20217;-73
2022/02/25 06:55:52;;;;;;;0.53;0.30;;;;;;;5.50;100.00;99766.94;5082568;28;20224;-72
2022/02/25 06:58:19;;;;;;;0.67;0.33;;;;;;;5.58;100.00;99777.47;5079051;28;20215;-72
2022/02/25 07:00:47;;;;;;;0.90;0.50;;;;;;;5.78;98.84;99783.84;5078955;28;20228;-74
2022/02/25 07:03:15;;;;;;;0.53;0.30;;;;;;;5.92;95.83;99792.88;5086940;22;20223;-74
2022/02/25 07:05:43;;;;;;;0.77;0.40;;;;;;;6.05;96.82;99794.84;5079560;28;20709;-72
2022/02/25 07:08:14;;;;;;;0.67;0.47;;;;;;;6.30;94.93;99808.66;5080422;28;20192;-73
2022/02/25 07:10:41;;;;;;;0.83;0.50;;;;;;;6.39;93.50;99789.69;5079799;28;20228;-72
2022/02/25 07:13:09;;;;;;;0.90;0.40;;;;;;;6.40;91.76;99809.16;5081650;28;20562;-72
2022/02/25 07:15:37;;;;;;;1.00;0.60;;;;;;;6.38;89.15;99798.72;5080354;28;20258;-72
2022/02/25 07:18:09;;;;;;;1.13;0.70;;;;;;;6.23;89.22;99802.44;5077539;28;20228;-73
2022/02/25 07:20:37;;;;;;;1.20;0.50;;;;;;;6.11;88.83;99812.75;5085175;28;20239;-73
2022/02/25 07:23:05;;;;;;;1.53;0.63;;;;;;;6.13;90.94;99814.19;5078123;28;20229;-72
2022/02/25 07:25:32;;;;;;;3.17;0.50;;;;;;;6.12;91.12;99814.38;5077870;28;20528;-72
2022/02/25 07:27:59;;;;;;;1.43;0.60;;;;;;;6.08;91.98;99813.91;5076122;28;20216;-72
2022/02/25 07:30:28;;;;;;;0.67;0.50;;;;;;;5.92;93.02;99813.31;5064142;28;20232;-74
2022/02/25 07:32:56;;;;;;;0.87;0.60;;;;;;;6.05;92.52;99821.47;5080307;28;20324;-73
2022/02/25 07:35:26;;;;;;;0.87;0.50;;;;;;;6.20;91.66;99824.94;5080826;28;20228;-73
2022/02/25 07:37:53;;;;;;;0.83;0.50;;;;;;;6.56;88.79;99831.06;5063361;28;20225;-72
2022/02/25 07:40:23;;;;;;;1.13;0.70;;;;;;;6.84;88.27;99824.97;5079217;28;20248;-73
2022/02/25 07:42:53;;;;;;;0.77;0.60;;;;;;;7.09;84.45;99834.25;5065725;28;20232;-72
2022/02/25 07:45:26;;;;;;;1.23;0.50;;;;;;;7.18;83.76;99842.91;5077085;28;20221;-73
2022/02/25 07:47:57;;;;;;;1.03;0.90;;;;;;;7.40;77.53;99841.84;5079158;28;20229;-73
2022/02/25 07:50:33;;;;;;;0.97;0.70;;;;;;;7.47;75.13;99842.72;5081544;28;20692;-72
2022/02/25 07:53:01;;;;;;;0.87;0.70;;;;;;;7.72;72.33;99838.56;5084451;28;20759;-73
2022/02/25 07:55:30;;;;;;;1.73;0.70;;;;;;;8.03;72.37;99842.63;5085860;28;20240;-72
2022/02/25 07:58:03;;;;;;;1.50;0.70;;;;;;;8.12;68.30;99839.59;5089904;23;20274;-73
2022/02/25 08:00:35;;;;;;;1.10;0.73;;;;;;;8.46;67.48;99840.59;5089662;28;20530;-73
2022/02/25 08:03:04;;;;;;;2.53;0.60;;;;;;;8.58;66.10;99831.81;5097397;22;20517;-72
2022/02/25 08:05:35;;;;;;;0.93;0.60;;;;;;;8.32;65.74;99853.06;5081777;23;20224;-73
2022/02/25 08:08:07;;;;;;;1.13;0.60;;;;;;;8.54;63.47;99845.78;5082292;23;20236;-72
2022/02/25 08:10:38;;;;;;;1.03;0.67;;;;;;;8.54;62.52;99854.56;5078664;28;20220;-72
2022/02/25 08:13:09;;;;;;;1.17;0.80;;;;;;;8.36;63.73;99843.63;5092343;28;20207;-72
2022/02/25 08:15:40;;;;;;;0.67;0.60;;;;;;;8.57;64.28;99869.38;5099706;22;20231;-73
2022/02/25 08:18:09;;;;;;;0.90;0.60;;;;;;;8.46;64.04;99869.97;5090934;28;20251;-74
2022/02/25 08:20:37;;;;;;;0.83;0.60;;;;;;;8.26;64.93;99862.66;5074964;28;20251;-73
2022/02/25 08:23:10;;;;;;;0.80;0.70;;;;;;;8.22;64.31;99874.75;5113828;22;20266;-73
2022/02/25 08:25:39;;;;;;;1.87;0.63;;;;;;;8.12;64.52;99860.16;5093077;28;20682;-73
2022/02/25 08:28:11;;;;;;;0.80;0.80;;;;;;;7.81;66.02;99873.91;5079538;22;20841;-72
2022/02/25 08:30:44;;;;;;;1.70;0.70;;;;;;;7.67;65.14;99867.69;5071823;28;20655;-72
2022/02/25 08:33:18;;;;;;;1.37;0.80;;;;;;;7.63;66.71;99871.75;5070169;28;20232;-72
2022/02/25 08:35:56;;;;;;;0.93;0.67;;;;;;;7.68;67.81;99872.00;5094757;22;20266;-73
2022/02/25 08:38:25;;;;;;;0.80;0.70;;;;;;;7.84;68.02;99879.69;5091335;28;20201;-73
2022/02/25 08:40:56;;;;;;;2.03;1.70;;;;;;;8.02;67.73;99875.69;5102952;22;20224;-72
2022/02/25 08:43:33;;;;;;;1.17;0.70;;;;;;;8.29;64.67;99886.34;5075625;28;20250;-74
2022/02/25 08:46:13;;;;;;;1.63;0.63;;;;;;;8.51;63.35;99878.19;5100190;28;20227;-73
2022/02/25 08:48:43;;;;;;;1.23;1.00;;;;;;;8.54;60.97;99878.59;5097474;22;20216;-72
2022/02/25 08:51:11;;;;;;;1.53;0.80;;;;;;;8.59;62.12;99868.16;5077254;28;20244;-73
2022/02/25 08:53:41;;;;;;;1.00;0.70;;;;;;;8.75;62.35;99883.00;5093715;28;20229;-73
2022/02/25 08:56:25;;;;;;;1.70;1.00;;;;;;;8.77;61.71;99881.75;5104012;22;20220;-74
2022/02/25 08:59:03;;;;;;;0.70;0.70;;;;;;;8.80;57.65;99872.53;5073010;28;20243;-73
2022/02/25 09:01:32;;;;;;;0.90;0.70;;;;;;;8.62;59.37;99874.97;5041049;23;20229;-74
2022/02/25 09:04:08;;;;;;;0.70;0.70;;;;;;;8.53;58.52;99882.31;5063888;22;20225;-73
2022/02/25 09:06:41;;;;;;;0.83;0.60;;;;;;;8.24;59.33;99875.41;5009521;28;20247;-73
2022/02/25 09:09:14;;;;;;;0.80;0.80;;;;;;;8.09;59.55;99874.69;5045592;23;20226;-73
2022/02/25 09:12:12;;;;;;;2.67;0.60;;;;;;;8.15;62.15;99871.25;5069935;23;20240;-73
2022/02/25 09:15:34;;;;;;;1.23;0.80;;;;;;;7.95;61.33;99867.63;5076399;22;20226;-73
2022/02/25 09:18:24;;;;;;;1.60;0.70;;;;;;;7.85;62.53;99880.50;5056219;28;20229;-72
2022/02/25 09:21:13;;;;;;;2.60;0.70;;;;;;;8.18;62.67;99875.34;5077242;22;20237;-73
2022/02/25 09:23:48;;;;;;;1.60;0.70;;;;;;;8.18;61.83;99878.03;5053073;28;20214;-74
2022/02/25 09:26:27;;;;;;;1.73;0.70;;;;;;;8.33;60.41;99876.06;5049940;28;20228;-74
2022/02/25 09:29:14;;;;;;;1.20;0.70;;;;;;;8.56;59.82;99873.06;5067401;23;20205;-74
2022/02/25 09:31:41;;;;;;;0.50;0.50;;;;;;;8.67;59.50;99864.50;5051095;28;20281;-73
2022/02/25 09:34:19;;;;;;;1.90;0.60;;;;;;;8.94;57.93;99858.19;5069512;28;20237;-72
2022/02/25 09:36:49;;;;;;;1.37;0.80;;;;;;;8.90;57.48;99862.28;5066236;28;20227;-73
2022/02/25 09:39:19;;;;;;;0.80;0.60;;;;;;;8.87;56.69;99862.66;5056365;28;20233;-73
2022/02/25 09:41:48;;;;;;;1.50;0.60;;;;;;;8.63;57.55;99869.38;5069558;28;20229;-73
2022/02/25 09:44:17;;;;;;;0.67;0.53;;;;;;;8.39;59.82;99861.94;5042195;28;20225;-73
2022/02/25 09:46:50;;;;;;;0.67;0.50;;;;;;;8.30;60.13;99866.63;5039586;28;20222;-73
2022/02/25 09:49:19;;;;;;;0.90;0.60;;;;;;;8.14;61.62;99858.09;5044048;28;20263;-73
2022/02/25 09:51:58;;;;;;;1.13;0.70;;;;;;;8.13;62.99;99872.44;5070057;28;20240;-73
2022/02/25 09:54:26;;;;;;;0.67;0.60;;;;;;;7.86;62.68;99858.16;5066975;28;20229;-73
2022/02/25 09:56:55;;;;;;;0.97;0.73;;;;;;;7.81;65.42;99888.09;5066428;28;20209;-73
2022/02/25 09:59:23;;;;;;;1.87;0.80;;;;;;;7.70;64.80;99903.81;5064268;28;20308;-73
2022/02/25 10:01:51;;;;;;;1.20;0.70;;;;;;;7.67;65.87;99918.34;5057473;28;20233;-73
2022/02/25 10:04:26;;;;;;;1.03;0.70;;;;;;;7.71;67.21;99927.59;5038634;28;20220;-73
2022/02/25 10:06:53;;;;;;;1.30;0.80;;;;;;;7.69;67.03;99936.81;5057660;28;20230;-73
2022/02/25 10:09:31;;;;;;;1.57;0.80;;;;;;;7.66;67.90;99922.03;5048224;28;20296;-73
2022/02/25 10:12:01;;;;;;;2.27;0.90;;;;;;;7.88;66.40;99914.81;5057465;28;20229;-73
2022/02/25 10:14:55;;;;;;;1.07;0.60;;;;;;;8.04;64.62;99903.81;5051670;28;20222;-73
2022/02/25 10:17:26;;;;;;;0.67;0.63;;;;;;;7.92;65.99;99898.22;5052396;28;20226;-73
2022/02/25 10:20:00;;;;;;;1.07;0.70;;;;;;;7.88;66.73;99888.97;5053141;28;20237;-73
2022/02/25 10:22:45;;;;;;;1.87;0.77;;;;;;;7.75;67.33;99896.84;5050581;28;20230;-73
2022/02/25 10:25:14;;;;;;;1.57;0.60;;;;;;;7.94;67.38;99898.84;5055367;28;20251;-73
2022/02/25 10:27:46;;;;;;;1.13;0.70;;;;;;;8.10;65.56;99902.22;5049637;28;20297;-75
2022/02/25 10:30:18;;;;;;;2.50;1.17;;;;;;;7.82;64.34;99888.91;5054380;23;20289;-73
2022/02/25 10:33:08;;;;;;;1.87;0.90;;;;;;;7.83;65.10;99901.22;5043523;28;20222;-73
2022/02/25 10:35:38;;;;;;;1.73;1.10;;;;;;;7.72;65.95;99896.44;5027627;28;20234;-73
2022/02/25 10:38:12;;;;;;;1.50;0.77;;;;;;;7.80;66.41;99893.59;5035249;28;20637;-74
2022/02/25 10:40:47;;;;;;;1.77;0.70;;;;;;;8.03;64.79;99888.00;5042916;28;20660;-73
2022/02/25 10:43:14;;;;;;;1.20;0.67;;;;;;;8.05;62.79;99897.47;5041321;28;20240;-73
2022/02/25 10:45:44;;;;;;;1.47;0.70;;;;;;;8.12;61.97;99908.97;5038340;28;20314;-73
2022/02/25 10:48:14;;;;;;;1.03;0.73;;;;;;;7.92;62.81;99908.88;5041318;28;20263;-73
2022/02/25 10:50:58;;;;;;;1.03;0.70;;;;;;;7.81;61.98;99900.59;5032279;28;20293;-73
2022/02/25 10:53:59;;;;;;;1.27;0.70;;;;;;;7.84;61.75;99897.53;5037280;28;20229;-74
2022/02/25 10:56:54;;;;;;;1.50;0.60;;;;;;;7.79;60.16;99882.09;5058391;22;20225;-73
2022/02/25 10:59:24;;;;;;;0.70;0.60;;;;;;;7.86;59.08;99887.50;5037994;28;20230;-73
2022/02/25 11:01:57;;;;;;;1.13;0.63;;;;;;;7.92;59.58;99895.56;5056924;23;20230;-73
2022/02/25 11:04:33;;;;;;;0.80;0.80;;;;;;;7.83;56.32;99882.56;5031124;28;20202;-73
2022/02/25 11:07:15;;;;;;;1.47;0.50;;;;;;;7.88;55.34;99898.81;5034414;28;20218;-73
2022/02/25 11:09:45;;;;;;;2.43;0.60;;;;;;;8.01;54.89;99896.22;5037310;28;20230;-73
2022/02/25 11:12:18;;;;;;;1.80;0.70;;;;;;;7.92;54.26;99889.38;5036940;28;20217;-73
2022/02/25 11:14:49;;;;;;;1.63;0.50;;;;;;;8.11;51.81;99891.34;5043758;28;20205;-74
2022/02/25 11:17:25;;;;;;;2.37;1.03;;;;;;;7.69;54.11;99896.81;5034093;28;20217;-73
2022/02/25 11:20:06;;;;;;;0.97;0.60;;;;;;;7.86;54.35;99885.66;5042215;28;20210;-73
2022/02/25 11:22:40;;;;;;;1.43;0.77;;;;;;;8.14;51.49;99874.94;5018936;28;20225;-73
2022/02/25 11:25:16;;;;;;;1.50;0.50;;;;;;;8.33;51.20;99887.59;5048981;23;20670;-73
2022/02/25 11:27:53;;;;;;;1.17;0.60;;;;;;;8.57;48.41;99912.13;5019539;23;20258;-72
2022/02/25 11:30:24;;;;;;;0.90;0.67;;;;;;;8.57;48.08;99866.72;5024500;28;20249;-73
2022/02/25 11:33:04;;;;;;;1.63;0.67;;;;;;;8.68;46.79;99890.97;5029921;28;20280;-74
2022/02/25 11:36:00;;;;;;;2.20;0.60;;;;;;;8.71;47.52;99877.25;5039827;28;20238;-72
2022/02/25 11:38:45;;;;;;;1.27;0.60;;;;;;;8.93;47.02;99879.75;5049036;23;20237;-74
2022/02/25 11:41:17;;;;;;;0.70;0.70;;;;;;;9.02;47.50;99882.03;5059556;28;20230;-72
2022/02/25 11:43:59;;;;;;;1.20;0.63;;;;;;;8.96;45.99;99868.66;5061779;28;20221;-73
2022/02/25 11:46:33;;;;;;;2.97;2.00;;;;;;;9.18;46.05;99875.47;5046015;28;20237;-73
2022/02/25 11:49:23;;;;;;;0.63;0.60;;;;;;;9.06;46.56;99871.75;5059070;28;20230;-73
2022/02/25 11:51:52;;;;;;;0.93;0.80;;;;;;;9.05;46.32;99873.59;5064665;28;20532;-73
2022/02/25 11:54:45;;;;;;;0.60;0.60;;;;;;;8.99;44.88;99855.72;5062898;28;20226;-73
2022/02/25 11:57:17;;;;;;;1.70;0.63;;;;;;;8.94;43.78;99862.69;5057233;28;20249;-73
2022/02/25 11:59:46;;;;;;;1.17;0.70;;;;;;;9.10;42.86;99860.44;5056036;28;20256;-73
2022/02/25 12:02:20;;;;;;;1.10;0.70;;;;;;;9.30;43.15;99865.81;5045411;28;20275;-73